Time;durP1;ratioP1;P1;durP2;ratioP2;P2;SDS_P1;SDS_P2;PMS_P1;PMS_P2;Temp;Humidity;BMP_temperature;BMP_pressure;BME280_temperature;BME280_humidity;BME280_pressure;Samples;Min_cycle;Max_cycle;Signal;HPM_P1;HPM_P2
2022/06/29 00:00:40;;;;;;;19.98;7.20;;;;;;;25.78;60.47;100705.94;5090666;28;20039;-79
2022/06/29 00:03:07;;;;;;;17.25;7.28;;;;;;;25.83;60.81;100740.53;5090496;28;20063;-79
2022/06/29 00:05:34;;;;;;;24.08;8.68;;;;;;;25.83;61.22;100756.84;5089809;28;20105;-79
2022/06/29 00:08:01;;;;;;;20.00;7.72;;;;;;;25.68;61.37;100739.13;5089731;28;20429;-80
2022/06/29 00:10:34;;;;;;;18.98;7.85;;;;;;;25.58;61.79;100744.28;5090175;28;20058;-80
2022/06/29 00:13:01;;;;;;;21.35;7.63;;;;;;;25.58;62.14;100753.28;5089582;28;20058;-81
2022/06/29 00:15:28;;;;;;;25.23;8.27;;;;;;;25.50;62.21;100736.47;5090235;28;20085;-80
2022/06/29 00:17:55;;;;;;;24.38;8.57;;;;;;;25.35;62.15;100710.53;5089545;28;20051;-80
2022/06/29 00:20:22;;;;;;;29.95;9.23;;;;;;;25.00;61.95;100649.81;5089196;28;20043;-80
2022/06/29 00:22:49;;;;;;;19.30;7.22;;;;;;;25.51;62.67;100762.56;5089439;28;20063;-77
2022/06/29 00:25:16;;;;;;;22.35;7.43;;;;;;;25.47;62.52;100747.81;5089666;28;20440;-79
2022/06/29 00:27:43;;;;;;;22.27;7.28;;;;;;;25.16;62.34;100709.72;5089183;28;20055;-78
2022/06/29 00:30:11;;;;;;;19.10;8.90;;;;;;;25.57;62.84;100776.06;5089400;28;20054;-81
2022/06/29 00:32:38;;;;;;;41.88;8.95;;;;;;;25.59;62.25;100773.13;5089433;28;20575;-80
2022/06/29 00:35:05;;;;;;;25.20;8.57;;;;;;;25.44;62.46;100748.25;5089685;28;20077;-79
2022/06/29 00:37:32;;;;;;;19.30;8.25;;;;;;;25.36;62.55;100752.13;5088981;28;20055;-79
2022/06/29 00:40:00;;;;;;;21.33;8.25;;;;;;;25.47;62.66;100778.53;5077335;28;20073;-79
2022/06/29 00:42:27;;;;;;;19.55;8.02;;;;;;;25.23;62.57;100741.47;5069492;28;20060;-79
2022/06/29 00:44:53;;;;;;;19.05;8.10;;;;;;;25.43;62.56;100771.06;5070489;28;20358;-79
2022/06/29 00:47:22;;;;;;;19.35;6.65;;;;;;;25.23;62.55;100745.00;5086855;28;20093;-78
2022/06/29 00:49:48;;;;;;;16.08;7.38;;;;;;;25.37;62.58;100764.69;5068652;28;20058;-79
2022/06/29 00:52:17;;;;;;;24.40;6.95;;;;;;;25.26;62.29;100741.81;5068820;28;20287;-81
2022/06/29 00:54:47;;;;;;;23.77;6.57;;;;;;;25.38;62.33;100764.44;5106530;28;20450;-79
2022/06/29 00:57:16;;;;;;;23.98;7.00;;;;;;;25.37;62.02;100760.06;5088737;28;20067;-80
2022/06/29 00:59:47;;;;;;;22.13;6.72;;;;;;;25.45;61.17;100767.06;5106752;28;20319;-79
2022/06/29 01:02:16;;;;;;;21.08;7.50;;;;;;;25.22;61.28;100724.34;5089205;28;20052;-79
2022/06/29 01:04:45;;;;;;;22.05;7.20;;;;;;;25.30;61.30;100753.88;5089083;28;20460;-79
2022/06/29 01:07:15;;;;;;;17.75;6.45;;;;;;;25.43;61.25;100754.75;5089052;28;20051;-78
2022/06/29 01:09:43;;;;;;;25.55;7.60;;;;;;;25.54;60.69;100770.28;5106983;28;20043;-80
2022/06/29 01:12:10;;;;;;;23.25;7.13;;;;;;;25.07;60.24;100680.41;5089096;28;20059;-80
2022/06/29 01:14:42;;;;;;;22.65;7.03;;;;;;;25.51;60.43;100748.97;5089012;28;20062;-80
2022/06/29 01:17:11;;;;;;;19.05;5.90;;;;;;;25.48;60.82;100757.59;5088903;28;20051;-79
2022/06/29 01:19:39;;;;;;;18.25;6.50;;;;;;;25.46;60.83;100757.00;5091558;28;20059;-80
2022/06/29 01:22:09;;;;;;;20.55;6.30;;;;;;;25.40;60.82;100763.38;5095930;28;20130;-80
2022/06/29 01:24:36;;;;;;;24.58;8.02;;;;;;;25.17;60.78;100716.03;5093457;28;20075;-79
2022/06/29 01:27:04;;;;;;;14.65;6.47;;;;;;;25.25;61.40;100744.78;5091104;28;20066;-79
2022/06/29 01:29:33;;;;;;;17.70;6.82;;;;;;;25.19;61.21;100751.94;5090051;28;20079;-78
2022/06/29 01:32:00;;;;;;;21.52;7.72;;;;;;;24.95;61.88;100730.09;5089580;28;20067;-79
2022/06/29 01:34:29;;;;;;;18.63;7.47;;;;;;;25.01;61.96;100743.81;5089537;28;20303;-80
2022/06/29 01:36:56;;;;;;;22.27;6.97;;;;;;;25.01;61.91;100735.66;5088829;28;20231;-81
2022/06/29 01:39:23;;;;;;;21.17;7.93;;;;;;;24.93;62.44;100726.78;5077847;28;20451;-79
2022/06/29 01:41:49;;;;;;;20.13;7.57;;;;;;;24.87;62.67;100737.72;5048169;28;20522;-79
2022/06/29 01:44:16;;;;;;;20.33;7.40;;;;;;;24.86;62.95;100725.19;5066037;28;20060;-80
2022/06/29 01:46:46;;;;;;;22.00;8.55;;;;;;;24.82;62.97;100705.81;5048423;28;20515;-79
2022/06/29 01:49:12;;;;;;;20.52;7.55;;;;;;;24.91;63.05;100723.44;5047906;28;20044;-80
2022/06/29 01:51:40;;;;;;;17.90;7.28;;;;;;;24.81;63.45;100736.75;5048209;28;20045;-78
2022/06/29 01:54:07;;;;;;;18.75;7.35;;;;;;;24.63;63.81;100709.59;5079346;28;20043;-79
2022/06/29 01:56:34;;;;;;;21.30;7.35;;;;;;;24.37;63.66;100656.41;5088295;28;20039;-79
2022/06/29 01:59:00;;;;;;;19.92;8.13;;;;;;;24.80;63.88;100710.63;5106155;28;20051;-79
2022/06/29 02:01:27;;;;;;;21.38;7.78;;;;;;;24.88;63.75;100723.06;5088412;28;20047;-79
2022/06/29 02:03:54;;;;;;;23.77;8.43;;;;;;;24.53;63.50;100670.22;5090864;28;20044;-78
2022/06/29 02:06:23;;;;;;;20.67;8.38;;;;;;;24.69;63.61;100695.13;5092217;28;20054;-79
2022/06/29 02:08:49;;;;;;;25.77;9.68;;;;;;;24.76;64.12;100714.88;5092173;28;20603;-79
2022/06/29 02:11:16;;;;;;;20.20;8.20;;;;;;;24.66;64.42;100720.84;5092472;28;20055;-79
2022/06/29 02:13:43;;;;;;;32.63;10.43;;;;;;;24.35;64.98;100691.94;5092041;28;20055;-80
2022/06/29 02:16:09;;;;;;;25.20;8.85;;;;;;;23.18;64.86;100497.47;5091952;28;20070;-80
2022/06/29 02:18:36;;;;;;;19.45;9.13;;;;;;;24.47;65.07;100706.44;5109747;28;20047;-79
2022/06/29 02:21:03;;;;;;;22.83;9.63;;;;;;;24.37;65.60;100688.97;5091653;28;20094;-79
2022/06/29 02:23:30;;;;;;;21.58;9.35;;;;;;;24.28;65.33;100674.91;5091657;28;20063;-79
2022/06/29 02:25:57;;;;;;;32.00;10.15;;;;;;;24.38;65.87;100694.19;5091856;28;20058;-78
2022/06/29 02:28:23;;;;;;;20.02;8.05;;;;;;;24.47;65.68;100711.84;5091640;28;20059;-79
2022/06/29 02:36:21;;;;;;;22.00;7.75;;;;;;;24.33;65.82;100694.03;5110026;28;20407;-78
2022/06/29 02:38:47;;;;;;;22.20;7.90;;;;;;;24.34;66.10;100698.38;5089124;28;20509;-79
2022/06/29 02:41:14;;;;;;;20.85;8.85;;;;;;;24.41;65.89;100715.44;5089706;28;20109;-80
2022/06/29 02:43:41;;;;;;;23.83;9.70;;;;;;;24.29;65.62;100679.25;5071305;28;20143;-79
2022/06/29 02:46:07;;;;;;;20.83;9.32;;;;;;;23.57;65.58;100576.72;5073020;28;20228;-80
2022/06/29 02:48:34;;;;;;;17.75;8.95;;;;;;;24.29;66.20;100714.53;5089942;28;20052;-80
2022/06/29 02:51:01;;;;;;;18.60;8.75;;;;;;;24.11;65.84;100669.22;5089235;28;20059;-80
2022/06/29 02:53:28;;;;;;;21.48;9.75;;;;;;;24.12;66.26;100681.72;5081614;28;20051;-79
2022/06/29 02:55:54;;;;;;;21.92;8.20;;;;;;;24.20;65.82;100688.72;5090968;28;20040;-82
2022/06/29 02:58:21;;;;;;;22.85;8.85;;;;;;;24.31;65.76;100704.28;5090855;28;20055;-79
2022/06/29 03:00:48;;;;;;;20.85;9.20;;;;;;;24.22;65.72;100700.19;5091363;28;20066;-79
2022/06/29 03:03:17;;;;;;;19.13;8.60;;;;;;;24.20;65.82;100710.44;5091385;28;20406;-79
2022/06/29 03:05:44;;;;;;;25.75;8.52;;;;;;;24.17;66.00;100710.88;5090722;28;20467;-80
2022/06/29 03:08:11;;;;;;;16.33;7.63;;;;;;;24.15;65.66;100712.97;5091495;28;20092;-80
2022/06/29 03:10:38;;;;;;;24.33;7.60;;;;;;;24.03;66.44;100710.16;5090682;28;20048;-80
2022/06/29 03:13:05;;;;;;;22.83;7.78;;;;;;;24.03;66.72;100713.72;5090761;28;20051;-78
2022/06/29 03:15:31;;;;;;;19.23;6.78;;;;;;;24.08;66.22;100699.50;5091061;28;20055;-77
2022/06/29 03:17:58;;;;;;;26.58;8.13;;;;;;;24.10;65.91;100706.38;5090806;28;20051;-78
2022/06/29 03:20:26;;;;;;;20.33;8.10;;;;;;;23.86;66.32;100685.50;5090812;28;20051;-78
2022/06/29 03:22:52;;;;;;;22.83;7.47;;;;;;;23.83;66.50;100689.50;5108876;28;20082;-80
2022/06/29 03:25:19;;;;;;;16.15;6.88;;;;;;;23.86;66.62;100699.06;5090893;28;20067;-77
2022/06/29 03:27:47;;;;;;;15.13;7.03;;;;;;;23.88;66.18;100699.66;5091006;28;20070;-79
2022/06/29 03:30:14;;;;;;;19.30;7.65;;;;;;;23.71;66.71;100685.00;5092024;28;20055;-80
2022/06/29 03:32:41;;;;;;;22.60;6.60;;;;;;;23.65;67.02;100682.13;5092502;28;20055;-81
2022/06/29 03:35:08;;;;;;;18.20;7.18;;;;;;;23.91;66.69;100707.38;5091372;28;20083;-79
2022/06/29 03:37:37;;;;;;;18.58;8.00;;;;;;;23.87;66.50;100701.56;5091167;28;20486;-79
2022/06/29 03:40:06;;;;;;;16.38;8.02;;;;;;;23.75;66.82;100688.94;5076224;28;20075;-78
2022/06/29 03:42:32;;;;;;;17.48;7.55;;;;;;;23.60;66.76;100668.41;5052568;28;20053;-79
2022/06/29 03:44:59;;;;;;;18.10;7.50;;;;;;;23.80;66.72;100708.09;5056276;28;20527;-80
2022/06/29 03:47:26;;;;;;;18.98;8.65;;;;;;;23.40;66.79;100641.47;5061286;28;20051;-79
2022/06/29 03:49:53;;;;;;;20.50;8.38;;;;;;;23.84;66.64;100706.59;5063553;28;20052;-80
2022/06/29 03:52:20;;;;;;;22.52;6.57;;;;;;;23.90;66.78;100705.69;5088923;28;20134;-81
2022/06/29 03:54:46;;;;;;;24.92;7.47;;;;;;;23.89;66.57;100702.16;5115749;28;20085;-82
2022/06/29 03:57:13;;;;;;;15.27;7.75;;;;;;;23.90;66.40;100694.84;5100017;28;20059;-80
2022/06/29 03:59:40;;;;;;;18.42;8.18;;;;;;;23.94;65.76;100690.66;5090925;28;20075;-79
2022/06/29 04:02:07;;;;;;;24.65;8.93;;;;;;;23.70;66.21;100665.19;5090553;28;20051;-80
2022/06/29 04:04:34;;;;;;;20.48;7.35;;;;;;;23.82;66.27;100697.88;5090609;28;20051;-81
2022/06/29 04:07:00;;;;;;;19.83;7.57;;;;;;;23.95;66.35;100708.56;5090291;28;20044;-81
2022/06/29 04:09:27;;;;;;;23.00;8.35;;;;;;;23.31;65.81;100594.03;5108270;28;20044;-80
2022/06/29 04:11:54;;;;;;;19.83;7.38;;;;;;;23.98;66.11;100713.56;5087902;28;20422;-79
2022/06/29 04:14:26;;;;;;;18.08;6.18;;;;;;;24.02;66.01;100711.22;5069963;28;20476;-78
2022/06/29 04:16:56;;;;;;;23.73;7.57;;;;;;;23.99;66.19;100717.09;5086774;28;20051;-79
2022/06/29 04:19:23;;;;;;;18.90;6.85;;;;;;;24.01;66.08;100715.84;5068725;28;20055;-80
2022/06/29 04:21:50;;;;;;;23.38;7.93;;;;;;;23.68;65.91;100649.13;5068641;28;20047;-80
2022/06/29 04:24:20;;;;;;;16.67;7.50;;;;;;;24.14;65.59;100719.47;5068652;28;20044;-80
2022/06/29 04:26:47;;;;;;;12.73;6.60;;;;;;;24.04;66.05;100715.38;5064790;28;20326;-78
2022/06/29 04:29:14;;;;;;;23.52;6.80;;;;;;;22.66;65.72;100483.28;5064420;28;20466;-78
2022/06/29 04:31:41;;;;;;;14.30;6.50;;;;;;;24.23;65.69;100716.25;5065207;28;20052;-78
2022/06/29 04:34:08;;;;;;;15.48;6.45;;;;;;;24.30;65.68;100710.78;5064468;28;20075;-80
2022/06/29 04:36:36;;;;;;;12.52;6.45;;;;;;;24.26;65.09;100701.41;5058139;28;20048;-80
2022/06/29 04:39:04;;;;;;;20.38;7.00;;;;;;;24.05;64.57;100643.00;5056510;28;20291;-79
2022/06/29 04:41:30;;;;;;;27.52;7.85;;;;;;;24.16;64.87;100665.84;5041378;28;20076;-80
2022/06/29 04:44:00;;;;;;;18.23;6.60;;;;;;;24.38;64.74;100706.94;5026018;28;20055;-79
2022/06/29 04:46:26;;;;;;;19.13;6.78;;;;;;;24.53;64.52;100721.78;5041367;28;20053;-79
2022/06/29 04:48:56;;;;;;;25.20;6.53;;;;;;;24.55;64.64;100728.91;5047330;28;20072;-80
2022/06/29 04:51:24;;;;;;;26.52;7.63;;;;;;;24.35;64.69;100691.09;5026786;28;20056;-79
2022/06/29 04:53:55;;;;;;;16.73;6.35;;;;;;;24.59;64.69;100735.50;5058659;28;20407;-78
2022/06/29 04:56:28;;;;;;;;;;;;;;;24.64;64.14;100741.13;5066069;28;20056;-80
2022/06/29 04:58:55;;;;;;;;;;;;;;;24.68;64.11;100739.59;5065356;28;20023;-79
2022/06/29 05:01:23;;;;;;;15.23;7.07;;;;;;;24.69;64.10;100746.69;5065502;28;20521;-80
2022/06/29 05:03:51;;;;;;;18.52;6.90;;;;;;;24.33;64.41;100688.59;5064080;28;20045;-79
2022/06/29 05:06:18;;;;;;;19.45;6.10;;;;;;;24.46;63.58;100696.63;5063411;28;20045;-79
2022/06/29 05:08:45;;;;;;;18.27;7.05;;;;;;;24.52;63.48;100717.44;5064245;28;20052;-79
2022/06/29 05:11:17;;;;;;;21.67;7.25;;;;;;;24.81;63.68;100755.75;5064015;28;20051;-80
2022/06/29 05:13:45;;;;;;;20.05;5.32;;;;;;;24.85;63.17;100770.50;5063999;28;20135;-78
2022/06/29 05:16:13;;;;;;;16.52;6.78;;;;;;;24.91;62.52;100760.63;5065005;28;20480;-78
2022/06/29 05:18:40;;;;;;;20.38;6.75;;;;;;;24.68;62.98;100742.31;5064587;28;20036;-81
2022/06/29 05:21:09;;;;;;;16.35;5.85;;;;;;;24.88;63.34;100761.94;5064990;28;20067;-79
2022/06/29 05:23:36;;;;;;;14.43;5.47;;;;;;;24.84;62.77;100733.56;5063352;28;20408;-81
2022/06/29 05:26:03;;;;;;;18.60;6.10;;;;;;;25.03;62.35;100761.53;5064663;28;20492;-79
2022/06/29 05:28:29;;;;;;;19.05;5.57;;;;;;;25.08;61.17;100747.28;5087662;28;20060;-80
2022/06/29 05:30:56;;;;;;;16.33;5.72;;;;;;;25.02;61.47;100762.56;5088259;28;20286;-81
2022/06/29 05:33:23;;;;;;;17.75;6.13;;;;;;;24.93;61.02;100737.63;5088765;28;20054;-80
2022/06/29 05:35:50;;;;;;;16.10;4.95;;;;;;;25.13;60.89;100761.81;5088230;28;20052;-79
2022/06/29 05:38:17;;;;;;;16.20;5.18;;;;;;;25.13;60.46;100761.00;5089302;28;20048;-79
2022/06/29 05:40:45;;;;;;;13.98;5.28;;;;;;;25.07;61.13;100732.84;5073011;28;20097;-80
2022/06/29 05:43:11;;;;;;;18.67;5.20;;;;;;;25.44;59.71;100759.97;5072067;28;20368;-78
2022/06/29 05:45:38;;;;;;;19.00;5.88;;;;;;;25.42;59.94;100755.84;5072468;28;20054;-80
2022/06/29 05:48:05;;;;;;;13.88;4.95;;;;;;;25.29;59.42;100737.81;5072050;28;20090;-78
2022/06/29 05:50:32;;;;;;;17.17;5.00;;;;;;;24.98;59.93;100693.50;5072665;28;20044;-78
2022/06/29 05:52:59;;;;;;;19.75;5.25;;;;;;;25.48;58.51;100758.44;5079081;28;20100;-78
2022/06/29 05:55:26;;;;;;;14.88;5.53;;;;;;;25.44;59.01;100750.97;5093405;28;20124;-79
2022/06/29 05:57:53;;;;;;;14.07;5.18;;;;;;;25.49;59.33;100768.25;5092067;28;20116;-79
2022/06/29 06:00:20;;;;;;;19.75;6.15;;;;;;;25.35;59.17;100723.31;5092302;28;20043;-80
2022/06/29 06:02:51;;;;;;;19.52;5.75;;;;;;;25.58;59.56;100766.88;5093716;28;20048;-79
2022/06/29 06:05:18;;;;;;;22.90;5.97;;;;;;;25.67;59.35;100759.19;5092799;28;20100;-77
2022/06/29 06:07:46;;;;;;;19.50;5.70;;;;;;;25.65;59.33;100746.91;5091837;28;20051;-79
2022/06/29 06:10:13;;;;;;;17.70;5.70;;;;;;;25.67;59.32;100753.75;5109858;28;20082;-80
2022/06/29 06:12:40;;;;;;;18.77;5.90;;;;;;;25.68;59.52;100741.00;5090838;28;20047;-80
2022/06/29 06:15:07;;;;;;;12.30;5.80;;;;;;;25.77;59.32;100747.75;5091584;28;20046;-79
2022/06/29 06:17:34;;;;;;;21.92;6.20;;;;;;;25.67;59.25;100751.03;5109025;28;20044;-79
2022/06/29 06:20:02;;;;;;;17.55;6.18;;;;;;;25.68;59.75;100763.59;5091217;28;20047;-78
2022/06/29 06:22:29;;;;;;;14.93;6.82;;;;;;;25.65;59.51;100769.47;5086078;28;20105;-80
2022/06/29 06:24:57;;;;;;;21.88;5.88;;;;;;;25.47;59.97;100758.69;5088640;28;20844;-79
2022/06/29 06:27:23;;;;;;;21.00;5.72;;;;;;;25.25;59.91;100733.91;5070951;28;20662;-80
2022/06/29 06:29:50;;;;;;;16.67;5.60;;;;;;;25.43;59.91;100750.16;5070516;28;20113;-80
2022/06/29 06:32:17;;;;;;;16.10;5.95;;;;;;;25.38;59.97;100733.72;5071230;28;20082;-79
2022/06/29 06:34:44;;;;;;;18.15;6.05;;;;;;;25.40;59.88;100718.00;5070417;28;20044;-79
2022/06/29 06:37:11;;;;;;;15.15;5.70;;;;;;;25.92;58.89;100761.75;5071069;28;20509;-78
2022/06/29 06:39:38;;;;;;;19.92;5.63;;;;;;;25.85;58.38;100744.72;5066793;28;20554;-78
2022/06/29 06:42:05;;;;;;;21.48;6.32;;;;;;;26.05;57.27;100765.34;5050543;28;20052;-78
2022/06/29 06:44:31;;;;;;;24.73;6.25;;;;;;;25.42;57.47;100664.25;5050815;28;20435;-78
2022/06/29 06:47:03;;;;;;;15.40;5.30;;;;;;;25.79;58.09;100719.28;5067074;28;20041;-78
2022/06/29 06:49:30;;;;;;;14.68;5.43;;;;;;;26.12;57.84;100745.13;5050231;28;20217;-78
2022/06/29 06:51:57;;;;;;;14.40;4.63;;;;;;;26.16;57.36;100745.47;5068095;28;20048;-79
2022/06/29 06:54:25;;;;;;;20.33;6.65;;;;;;;25.76;56.49;100675.41;5079647;28;20052;-79
2022/06/29 06:56:51;;;;;;;17.60;5.80;;;;;;;26.19;56.59;100745.84;5071329;28;20036;-76
2022/06/29 06:59:18;;;;;;;13.65;5.75;;;;;;;26.28;56.22;100772.69;5070873;28;20051;-78
2022/06/29 07:01:46;;;;;;;16.17;5.50;;;;;;;26.05;56.81;100730.81;5070940;28;20127;-79
2022/06/29 07:04:18;;;;;;;14.73;5.40;;;;;;;26.29;56.36;100764.28;5070974;28;20471;-79
2022/06/29 07:06:45;;;;;;;15.27;5.57;;;;;;;26.23;56.73;100757.88;5071153;28;20044;-78
2022/06/29 07:09:12;;;;;;;15.77;5.50;;;;;;;26.28;56.58;100743.56;5071019;28;20044;-79
2022/06/29 07:11:38;;;;;;;14.35;5.72;;;;;;;26.41;56.37;100761.56;5071675;28;20051;-78
2022/06/29 07:14:05;;;;;;;20.42;5.90;;;;;;;26.45;56.48;100762.72;5071338;28;20052;-79
2022/06/29 07:16:32;;;;;;;16.48;5.22;;;;;;;26.50;56.11;100773.72;5070941;28;20052;-78
2022/06/29 07:18:59;;;;;;;20.55;5.35;;;;;;;26.59;55.70;100769.63;5070646;28;20113;-78
2022/06/29 07:21:26;;;;;;;17.08;5.20;;;;;;;26.69;55.78;100768.19;5070228;28;20566;-80
2022/06/29 07:23:52;;;;;;;19.40;6.05;;;;;;;26.81;55.16;100779.91;5087806;28;20063;-79
2022/06/29 07:26:19;;;;;;;18.27;6.13;;;;;;;26.81;54.49;100782.63;5087513;28;20048;-78
2022/06/29 07:28:46;;;;;;;15.85;4.95;;;;;;;26.81;55.25;100782.63;5086843;28;20052;-79
2022/06/29 07:31:13;;;;;;;12.75;4.57;;;;;;;26.62;55.56;100744.63;5068212;28;20458;-79
2022/06/29 07:33:40;;;;;;;26.23;6.47;;;;;;;26.71;54.41;100757.91;5068513;28;20048;-79
2022/06/29 07:36:06;;;;;;;16.80;5.20;;;;;;;26.78;54.78;100758.59;5069417;28;20076;-78
2022/06/29 07:38:34;;;;;;;19.70;5.72;;;;;;;26.99;54.56;100787.91;5069888;28;20106;-78
2022/06/29 07:41:01;;;;;;;24.10;5.85;;;;;;;26.80;54.23;100742.84;5069893;28;20090;-78
2022/06/29 07:43:29;;;;;;;17.00;5.18;;;;;;;27.08;52.79;100772.00;5070416;28;20097;-79
2022/06/29 07:45:57;;;;;;;17.70;5.18;;;;;;;26.99;53.47;100766.13;5070411;28;20460;-80
2022/06/29 07:48:25;;;;;;;23.85;5.50;;;;;;;27.03;53.10;100772.72;5070439;28;20530;-80
2022/06/29 07:50:53;;;;;;;18.15;5.55;;;;;;;26.94;53.35;100779.59;5070790;28;20044;-75
2022/06/29 07:53:20;;;;;;;16.73;4.75;;;;;;;26.69;53.92;100743.69;5079825;28;20055;-79
2022/06/29 07:55:47;;;;;;;17.83;5.63;;;;;;;26.81;53.91;100760.81;5090673;28;20449;-77
2022/06/29 07:58:15;;;;;;;19.20;4.93;;;;;;;26.95;53.77;100758.66;5090888;28;20051;-79
2022/06/29 08:00:43;;;;;;;17.13;5.07;;;;;;;27.16;53.54;100760.75;5095202;28;20052;-79
2022/06/29 08:03:10;;;;;;;17.05;6.47;;;;;;;27.13;52.74;100755.75;5099654;28;20051;-78
2022/06/29 08:05:37;;;;;;;12.73;5.72;;;;;;;27.31;52.40;100776.59;5101493;28;20051;-77
2022/06/29 08:08:04;;;;;;;10.85;5.13;;;;;;;27.10;53.10;100739.06;5100024;28;20105;-78
2022/06/29 08:10:31;;;;;;;21.17;5.97;;;;;;;27.29;52.85;100759.66;5091487;28;20051;-79
2022/06/29 08:12:58;;;;;;;14.88;5.28;;;;;;;27.32;53.02;100777.41;5090522;28;20051;-76
2022/06/29 08:15:25;;;;;;;12.18;4.10;;;;;;;27.51;53.26;100778.03;5090739;28;20051;-79
2022/06/29 08:17:52;;;;;;;14.63;5.75;;;;;;;27.58;51.74;100774.09;5090841;28;20448;-78
2022/06/29 08:20:21;;;;;;;14.82;5.43;;;;;;;27.62;52.62;100772.53;5090695;28;20563;-79
2022/06/29 08:22:49;;;;;;;15.88;4.78;;;;;;;27.40;51.37;100728.75;5109406;28;20103;-78
2022/06/29 08:25:17;;;;;;;15.25;4.97;;;;;;;27.55;51.25;100760.94;5092076;28;20066;-79
2022/06/29 08:27:52;;;;;;;15.98;5.72;;;;;;;27.46;51.36;100776.88;5090199;28;20063;-79
2022/06/29 08:30:19;;;;;;;18.20;5.75;;;;;;;27.19;50.69;100704.94;5089426;28;20048;-78
2022/06/29 08:32:46;;;;;;;21.85;6.28;;;;;;;27.67;50.22;100791.72;5088981;28;20513;-81
2022/06/29 08:35:15;;;;;;;20.33;5.35;;;;;;;27.62;50.36;100797.06;5089172;28;20078;-79
2022/06/29 08:37:43;;;;;;;12.10;5.05;;;;;;;27.60;51.02;100773.81;5089535;28;20056;-80
2022/06/29 08:40:13;;;;;;;15.68;5.25;;;;;;;27.73;51.22;100787.16;5071835;28;20068;-78
2022/06/29 08:42:41;;;;;;;15.98;5.68;;;;;;;27.80;50.13;100757.81;5065564;28;20657;-79
2022/06/29 08:45:09;;;;;;;13.90;5.50;;;;;;;27.96;49.96;100785.38;5065702;28;20048;-79
2022/06/29 08:47:36;;;;;;;29.80;6.32;;;;;;;28.00;49.66;100764.72;5066611;28;20202;-78
2022/06/29 08:50:10;;;;;;;28.00;6.05;;;;;;;28.08;50.29;100784.22;5065770;28;20458;-78
2022/06/29 08:52:39;;;;;;;11.48;5.43;;;;;;;28.10;50.16;100764.88;5056327;28;20047;-79
2022/06/29 08:55:08;;;;;;;18.05;6.57;;;;;;;28.17;50.28;100775.63;5073350;28;20143;-78
2022/06/29 08:57:37;;;;;;;14.45;5.45;;;;;;;28.22;48.72;100779.25;5093281;28;20090;-78
2022/06/29 09:00:06;;;;;;;16.42;5.85;;;;;;;28.19;48.98;100776.22;5090389;28;20043;-79
2022/06/29 09:02:32;;;;;;;24.30;6.45;;;;;;;28.02;50.14;100762.56;5107658;28;20138;-80
2022/06/29 09:04:59;;;;;;;23.42;6.22;;;;;;;27.81;50.37;100729.47;5089159;28;20096;-78
2022/06/29 09:07:26;;;;;;;20.13;5.60;;;;;;;28.10;50.26;100773.06;5088967;28;20487;-78
2022/06/29 09:10:07;;;;;;;17.98;6.00;;;;;;;28.32;48.25;100778.59;5089069;28;20048;-79
2022/06/29 09:12:35;;;;;;;13.55;5.90;;;;;;;28.12;48.67;100749.09;5089129;28;20102;-79
2022/06/29 09:15:03;;;;;;;13.70;4.85;;;;;;;28.24;49.30;100782.56;5089923;28;20375;-79
2022/06/29 09:17:31;;;;;;;27.80;6.53;;;;;;;28.21;49.09;100776.81;5089945;28;20047;-79
2022/06/29 09:19:58;;;;;;;15.00;4.70;;;;;;;27.76;49.84;100704.84;5088789;28;20040;-79
2022/06/29 09:22:52;;;;;;;18.48;5.20;;;;;;;28.10;50.03;100737.59;5092818;28;20131;-79
2022/06/29 09:25:31;;;;;;;24.27;6.03;;;;;;;28.43;49.94;100785.03;5089289;28;20050;-79
2022/06/29 09:27:58;;;;;;;21.95;5.40;;;;;;;28.37;48.58;100764.19;5107773;28;20140;-78
2022/06/29 09:30:35;;;;;;;13.98;5.03;;;;;;;28.55;49.38;100783.06;5089591;28;20063;-79
2022/06/29 09:33:04;;;;;;;19.98;5.93;;;;;;;28.55;49.01;100772.97;5090668;28;20057;-78
2022/06/29 09:35:32;;;;;;;14.27;5.25;;;;;;;28.59;48.14;100773.28;5111043;28;20047;-78
2022/06/29 09:38:21;;;;;;;20.75;5.82;;;;;;;28.79;48.68;100782.81;5110337;28;20051;-78
2022/06/29 09:41:14;;;;;;;13.40;5.15;;;;;;;28.23;49.08;100681.81;5088306;28;20044;-79
2022/06/29 09:43:46;;;;;;;14.77;5.30;;;;;;;28.73;49.16;100762.81;5086917;28;20106;-79
2022/06/29 09:46:15;;;;;;;12.63;5.65;;;;;;;28.81;49.31;100772.47;5068294;28;20052;-80
2022/06/29 09:48:43;;;;;;;19.00;6.10;;;;;;;28.58;47.92;100713.47;5068339;28;20040;-80
2022/06/29 09:54:08;;;;;;;21.95;6.50;;;;;;;28.94;48.69;100772.91;5100922;28;20058;-79
2022/06/29 09:56:45;;;;;;;20.05;6.28;;;;;;;29.00;48.46;100762.88;5107292;28;20052;-80
2022/06/29 09:59:21;;;;;;;13.02;5.43;;;;;;;29.21;48.03;100763.16;5088901;28;20055;-79
2022/06/29 10:04:34;;;;;;;17.75;5.43;;;;;;;29.08;48.91;100731.56;5103797;28;20058;-78
2022/06/29 10:07:03;;;;;;;11.75;5.18;;;;;;;29.51;48.43;100752.50;5087956;28;20048;-78
2022/06/29 10:09:30;;;;;;;15.68;5.35;;;;;;;29.53;47.13;100761.28;5106525;28;20415;-79
2022/06/29 10:15:00;;;;;;;20.40;5.82;;;;;;;29.80;46.71;100760.47;5106916;28;20040;-79
2022/06/29 10:17:27;;;;;;;18.55;5.95;;;;;;;29.73;46.60;100721.53;5089519;28;20043;-79
2022/06/29 10:20:09;;;;;;;11.13;4.88;;;;;;;29.76;46.72;100675.34;5088957;28;20051;-80
2022/06/29 10:22:36;;;;;;;13.68;5.60;;;;;;;29.77;46.27;100745.41;5088180;28;20129;-79
2022/06/29 10:25:09;;;;;;;19.02;5.78;;;;;;;29.63;46.24;100727.72;5091189;28;20100;-79
2022/06/29 10:27:35;;;;;;;21.08;5.93;;;;;;;30.07;45.49;100754.09;5091744;28;20051;-79
2022/06/29 10:30:23;;;;;;;17.25;5.70;;;;;;;29.80;45.56;100678.38;5092431;28;20043;-80
2022/06/29 10:32:51;;;;;;;14.02;5.85;;;;;;;30.32;44.56;100750.72;5091890;28;20056;-80
2022/06/29 10:35:18;;;;;;;13.13;5.35;;;;;;;30.25;45.84;100745.50;5092178;28;20052;-80
2022/06/29 10:37:54;;;;;;;15.27;5.80;;;;;;;30.43;46.09;100742.31;5110226;28;20108;-78
2022/06/29 10:40:24;;;;;;;17.70;5.38;;;;;;;30.53;46.07;100740.72;5076379;28;20052;-79
2022/06/29 10:43:10;;;;;;;12.82;5.47;;;;;;;30.35;46.00;100729.13;5089562;28;20503;-79
2022/06/29 10:45:42;;;;;;;15.55;5.95;;;;;;;30.38;44.82;100706.69;5071708;28;20345;-81
2022/06/29 10:48:12;;;;;;;10.88;5.80;;;;;;;30.53;44.85;100747.03;5089950;28;20098;-79
2022/06/29 10:50:40;;;;;;;14.27;5.72;;;;;;;30.38;44.68;100712.16;5071250;28;20255;-79
2022/06/29 10:53:12;;;;;;;14.13;5.80;;;;;;;30.57;44.56;100739.94;5079228;28;20048;-78
2022/06/29 10:55:47;;;;;;;19.85;6.32;;;;;;;30.42;44.97;100716.03;5109276;28;20286;-78
2022/06/29 10:58:14;;;;;;;12.50;5.60;;;;;;;29.95;46.19;100625.66;5091444;28;20101;-79
2022/06/29 11:00:52;;;;;;;17.83;4.57;;;;;;;30.53;43.54;100722.38;5091710;28;20097;-79
2022/06/29 11:03:25;;;;;;;23.17;6.97;;;;;;;30.50;45.07;100728.38;5072300;28;20058;-81
2022/06/29 11:17:00;;;;;;;12.82;4.85;;;;;;;30.58;44.77;100724.31;5109575;28;20291;-77
2022/06/29 11:19:30;;;;;;;13.60;4.95;;;;;;;30.27;45.41;100636.56;5090840;28;20093;-79
2022/06/29 11:22:11;;;;;;;11.85;5.18;;;;;;;29.70;46.04;100604.44;5090949;28;20048;-79
2022/06/29 11:24:57;;;;;;;15.82;5.20;;;;;;;30.10;44.37;100690.59;5092288;28;20044;-79
2022/06/29 11:27:35;;;;;;;12.52;3.97;;;;;;;30.20;45.43;100702.47;5091639;28;20055;-78
2022/06/29 11:30:08;;;;;;;16.42;4.88;;;;;;;30.27;43.64;100698.69;5091882;28;20127;-79
2022/06/29 11:32:42;;;;;;;12.18;4.72;;;;;;;30.38;46.02;100716.81;5106407;28;20050;-80
2022/06/29 11:35:11;;;;;;;13.05;5.47;;;;;;;29.99;45.90;100682.34;5092468;28;20043;-80
2022/06/29 11:37:51;;;;;;;20.15;4.80;;;;;;;30.20;46.29;100715.34;5094718;28;20052;-78
2022/06/29 11:40:34;;;;;;;13.65;4.85;;;;;;;29.93;44.84;100707.19;5075351;28;20075;-79
2022/06/29 11:43:07;;;;;;;19.73;5.32;;;;;;;29.71;45.31;100682.69;5051221;28;20106;-78
2022/06/29 11:45:46;;;;;;;6.07;4.13;;;;;;;30.30;47.51;100709.94;5068561;28;20055;-81
2022/06/29 11:48:13;;;;;;;18.98;4.90;;;;;;;30.22;45.98;100713.97;5050377;28;20048;-79